Time;durP1;ratioP1;P1;durP2;ratioP2;P2;SDS_P1;SDS_P2;PMS_P1;PMS_P2;Temp;Humidity;BMP_temperature;BMP_pressure;BME280_temperature;BME280_humidity;BME280_pressure;Samples;Min_cycle;Max_cycle;Signal;HPM_P1;HPM_P2
2022/09/18 00:01:23;;;;;;;5.43;1.77;;;16.20;99.30;;;;;;5055340;28;20029;-76
2022/09/18 00:03:50;;;;;;;6.50;1.65;;;16.20;99.20;;;;;;5043142;28;20108;-76
2022/09/18 00:06:19;;;;;;;8.55;1.75;;;16.20;99.20;;;;;;5035398;28;20105;-76
2022/09/18 00:08:48;;;;;;;6.35;1.85;;;16.20;99.10;;;;;;5034884;28;20052;-76
2022/09/18 00:11:16;;;;;;;7.88;1.50;;;16.20;99.20;;;;;;5034927;28;20033;-74
2022/09/18 00:13:42;;;;;;;7.30;1.95;;;16.10;99.50;;;;;;5044756;28;20033;-75
2022/09/18 00:16:10;;;;;;;4.78;1.73;;;16.10;99.40;;;;;;5054526;28;20028;-76
2022/09/18 00:18:36;;;;;;;10.73;2.38;;;16.10;99.40;;;;;;5053586;28;20469;-76
2022/09/18 00:21:14;;;;;;;4.90;1.55;;;16.10;99.40;;;;;;5054929;28;20028;-76
2022/09/18 00:23:40;;;;;;;8.70;1.60;;;16.10;99.40;;;;;;5045377;28;20037;-76
2022/09/18 00:26:07;;;;;;;4.70;1.83;;;16.10;99.30;;;;;;5034655;28;20382;-76
2022/09/18 00:28:34;;;;;;;7.70;1.88;;;16.10;99.20;;;;;;5033464;28;20136;-76
2022/09/18 00:31:07;;;;;;;8.35;1.60;;;16.10;99.30;;;;;;5034783;28;20485;-76
2022/09/18 00:33:34;;;;;;;8.15;1.98;;;16.10;99.20;;;;;;5038089;28;20022;-74
2022/09/18 00:36:02;;;;;;;8.10;1.50;;;16.10;99.20;;;;;;5034607;28;20022;-75
2022/09/18 00:38:30;;;;;;;9.73;2.17;;;16.10;99.20;;;;;;5033667;28;20485;-72
2022/09/18 00:41:01;;;;;;;11.80;1.83;;;16.10;99.20;;;;;;5034468;28;20055;-72
2022/09/18 00:43:32;;;;;;;6.15;1.33;;;16.10;99.20;;;;;;5038595;28;20393;-76
2022/09/18 00:46:22;;;;;;;5.70;1.42;;;16.10;99.00;;;;;;5053670;28;20025;-75
2022/09/18 00:49:16;;;;;;;8.25;1.50;;;16.10;98.90;;;;;;5053753;28;20120;-73
2022/09/18 00:51:44;;;;;;;7.47;1.65;;;16.10;99.00;;;;;;5051265;28;20029;-74
2022/09/18 00:54:26;;;;;;;11.00;1.30;;;16.10;98.90;;;;;;5042788;28;20502;-73
2022/09/18 00:56:57;;;;;;;6.05;1.67;;;16.10;98.90;;;;;;5032987;28;20364;-72
2022/09/18 00:59:27;;;;;;;5.40;1.02;;;16.10;98.90;;;;;;5033994;28;20182;-72
2022/09/18 01:01:55;;;;;;;8.98;1.33;;;16.10;98.80;;;;;;5034127;28;20100;-73
2022/09/18 01:04:21;;;;;;;4.90;1.25;;;16.00;98.80;;;;;;5045222;28;20032;-73
2022/09/18 01:07:10;;;;;;;8.35;1.48;;;16.10;98.70;;;;;;5053399;28;20025;-74
2022/09/18 01:09:56;;;;;;;6.93;1.25;;;16.00;98.70;;;;;;5051980;28;20474;-72
2022/09/18 01:12:36;;;;;;;4.93;1.23;;;16.00;98.80;;;;;;5053041;28;20040;-72
2022/09/18 01:15:29;;;;;;;7.18;1.25;;;16.00;98.60;;;;;;5037138;28;20068;-71
2022/09/18 01:18:03;;;;;;;4.35;0.90;;;16.00;98.50;;;;;;5033915;28;20068;-72
2022/09/18 01:20:54;;;;;;;7.53;1.20;;;16.00;98.60;;;;;;5033497;28;20102;-73
2022/09/18 01:23:22;;;;;;;4.63;1.00;;;15.90;98.20;;;;;;5033805;28;20049;-75
2022/09/18 01:26:10;;;;;;;8.75;2.13;;;15.90;98.20;;;;;;5053107;28;20047;-75
2022/09/18 01:28:37;;;;;;;5.55;1.20;;;15.90;98.10;;;;;;5052151;28;20033;-74
2022/09/18 01:31:13;;;;;;;6.30;0.75;;;15.90;97.80;;;;;;5053518;28;20098;-72
2022/09/18 01:33:58;;;;;;;6.53;1.10;;;15.90;97.80;;;;;;5048069;28;20045;-74
2022/09/18 01:36:28;;;;;;;7.90;1.80;;;15.90;97.90;;;;;;5032996;28;20043;-72
2022/09/18 01:39:01;;;;;;;6.50;1.20;;;15.80;97.90;;;;;;5033518;28;20044;-73
2022/09/18 01:41:28;;;;;;;5.88;0.98;;;15.80;97.70;;;;;;5033317;28;20120;-75
2022/09/18 01:43:59;;;;;;;4.07;1.15;;;15.80;97.60;;;;;;5038784;28;20025;-74
2022/09/18 01:46:25;;;;;;;6.20;1.15;;;15.70;97.50;;;;;;5052734;28;20086;-76
2022/09/18 01:48:57;;;;;;;9.68;1.63;;;15.70;97.60;;;;;;5053307;28;20017;-75
2022/09/18 01:51:27;;;;;;;7.32;1.85;;;15.70;97.70;;;;;;5052972;28;20458;-73
2022/09/18 01:54:04;;;;;;;11.45;2.53;;;15.70;98.00;;;;;;5047884;28;20021;-75
2022/09/18 01:56:38;;;;;;;9.57;2.60;;;15.60;97.90;;;;;;5033184;28;20543;-72
2022/09/18 01:59:11;;;;;;;8.60;2.30;;;15.60;97.80;;;;;;5033014;28;20052;-73
2022/09/18 02:01:39;;;;;;;8.20;2.60;;;15.70;97.70;;;;;;5033153;28;20029;-75
2022/09/18 02:04:11;;;;;;;10.50;2.70;;;15.60;97.70;;;;;;5038325;28;20470;-72
2022/09/18 02:06:42;;;;;;;8.70;2.85;;;15.60;97.70;;;;;;5052305;28;20033;-72
2022/09/18 02:09:09;;;;;;;7.30;2.28;;;15.60;97.70;;;;;;5052911;28;20027;-72
2022/09/18 02:11:39;;;;;;;9.55;2.70;;;15.60;97.80;;;;;;5052724;28;20089;-73
2022/09/18 02:14:12;;;;;;;8.48;2.25;;;15.60;97.60;;;;;;5047388;28;20044;-74
2022/09/18 02:16:46;;;;;;;11.32;3.28;;;15.60;97.70;;;;;;5032860;28;20021;-72
2022/09/18 02:19:56;;;;;;;6.80;2.40;;;15.60;97.70;;;;;;5032640;28;20375;-72
2022/09/18 02:22:23;;;;;;;10.13;2.80;;;15.70;97.50;;;;;;5030655;28;20501;-72
2022/09/18 02:24:52;;;;;;;8.23;2.90;;;15.60;97.40;;;;;;5030778;28;20474;-73
2022/09/18 02:27:20;;;;;;;6.05;1.70;;;15.60;97.50;;;;;;5031689;28;20108;-73
2022/09/18 02:29:47;;;;;;;7.78;2.17;;;15.70;97.20;;;;;;5032730;28;20120;-75
2022/09/18 02:32:13;;;;;;;6.63;1.98;;;15.70;97.00;;;;;;5032710;28;20013;-72
2022/09/18 02:34:40;;;;;;;5.38;1.83;;;15.70;96.90;;;;;;5039995;28;20113;-76
2022/09/18 02:37:09;;;;;;;5.97;2.20;;;15.70;96.90;;;;;;5053071;28;20017;-76
2022/09/18 02:39:56;;;;;;;8.32;2.10;;;15.60;97.00;;;;;;5052433;28;20037;-75
2022/09/18 02:42:50;;;;;;;8.23;2.13;;;15.60;96.80;;;;;;5052460;28;20110;-75
2022/09/18 02:45:41;;;;;;;5.90;1.80;;;15.60;96.70;;;;;;5023927;28;20037;-75
2022/09/18 02:48:15;;;;;;;7.85;1.88;;;15.60;96.90;;;;;;5043333;28;20068;-75
2022/09/18 02:51:19;;;;;;;9.18;1.70;;;15.60;96.80;;;;;;5052533;28;20043;-76
2022/09/18 02:53:49;;;;;;;6.03;2.00;;;15.60;96.70;;;;;;5052489;28;20029;-75
2022/09/18 02:56:38;;;;;;;5.90;1.60;;;15.60;96.70;;;;;;5033554;28;20033;-75
2022/09/18 02:59:10;;;;;;;7.05;1.75;;;15.50;96.70;;;;;;5036446;28;20485;-76
2022/09/18 03:01:38;;;;;;;5.40;1.33;;;15.50;96.80;;;;;;5036094;28;20040;-75
2022/09/18 03:04:08;;;;;;;5.35;1.52;;;15.60;96.50;;;;;;5037981;28;20033;-76
2022/09/18 03:06:34;;;;;;;5.68;1.23;;;15.50;96.80;;;;;;5056901;28;20033;-71
2022/09/18 03:08:59;;;;;;;9.00;2.30;;;15.40;97.30;;;;;;5056115;28;20025;-75
2022/09/18 03:11:25;;;;;;;5.63;1.20;;;15.40;97.70;;;;;;5055875;28;20033;-71
2022/09/18 03:13:51;;;;;;;5.15;2.20;;;15.40;97.30;;;;;;5055848;28;20029;-73
2022/09/18 03:16:16;;;;;;;6.05;2.00;;;15.40;97.00;;;;;;5036531;28;20021;-71
2022/09/18 03:18:42;;;;;;;7.53;2.58;;;15.40;97.30;;;;;;5036249;28;20025;-72
2022/09/18 03:21:08;;;;;;;4.95;2.28;;;15.40;97.50;;;;;;5036038;28;20069;-73
2022/09/18 03:23:36;;;;;;;4.80;2.00;;;15.40;97.60;;;;;;5035993;28;20037;-71
2022/09/18 03:26:02;;;;;;;7.88;3.05;;;15.40;97.70;;;;;;5051992;28;20115;-72
2022/09/18 03:28:30;;;;;;;5.53;2.50;;;15.40;97.70;;;;;;5055267;28;20112;-72
2022/09/18 03:30:56;;;;;;;5.25;2.72;;;15.40;97.90;;;;;;5055702;28;20052;-75
2022/09/18 03:33:22;;;;;;;7.07;2.47;;;15.40;97.80;;;;;;5055694;28;20390;-73
2022/09/18 03:35:47;;;;;;;5.63;2.58;;;15.40;98.00;;;;;;5041568;28;20025;-72
2022/09/18 03:38:13;;;;;;;6.50;2.20;;;15.40;97.90;;;;;;5035809;28;20030;-73
2022/09/18 03:40:43;;;;;;;7.93;2.72;;;15.40;98.00;;;;;;5035304;28;20033;-75
2022/09/18 03:43:08;;;;;;;8.07;2.95;;;15.40;98.10;;;;;;5035490;28;20029;-76
2022/09/18 03:45:34;;;;;;;8.48;2.42;;;15.40;98.20;;;;;;5046801;28;20047;-75
2022/09/18 03:47:59;;;;;;;8.85;3.03;;;15.40;98.30;;;;;;5054819;28;20055;-75
2022/09/18 03:50:25;;;;;;;5.55;2.35;;;15.40;98.30;;;;;;5055313;28;20033;-75
2022/09/18 03:52:51;;;;;;;4.28;2.17;;;15.40;98.10;;;;;;5044789;28;20491;-72
2022/09/18 03:55:16;;;;;;;5.55;2.30;;;15.50;98.10;;;;;;5043166;28;20483;-72
2022/09/18 03:57:44;;;;;;;7.15;2.63;;;15.50;98.20;;;;;;5032542;28;20029;-72
2022/09/18 04:00:10;;;;;;;4.88;2.28;;;15.60;97.90;;;;;;5033271;28;20036;-71
2022/09/18 04:02:36;;;;;;;6.57;2.83;;;15.60;97.60;;;;;;5034887;28;20140;-71
2022/09/18 04:05:03;;;;;;;7.38;2.30;;;15.50;97.50;;;;;;5041443;28;20493;-71
2022/09/18 04:07:28;;;;;;;5.38;2.30;;;15.50;98.00;;;;;;5052998;28;20033;-71
2022/09/18 04:09:54;;;;;;;7.40;2.10;;;15.40;98.20;;;;;;5054737;28;20051;-71
2022/09/18 04:12:19;;;;;;;7.63;2.60;;;15.40;98.50;;;;;;5055006;28;20021;-71
2022/09/18 04:14:45;;;;;;;6.18;2.30;;;15.40;98.40;;;;;;5050401;28;20025;-72
2022/09/18 04:17:11;;;;;;;8.35;2.55;;;15.30;98.40;;;;;;5037595;28;20024;-71
2022/09/18 04:19:36;;;;;;;8.35;2.25;;;15.40;98.30;;;;;;5036794;28;20074;-72
2022/09/18 04:22:03;;;;;;;5.93;2.28;;;15.40;97.70;;;;;;5035967;28;20033;-72
2022/09/18 04:24:28;;;;;;;7.55;1.92;;;15.50;97.80;;;;;;5039391;28;20381;-71
2022/09/18 04:26:54;;;;;;;5.95;1.85;;;15.60;97.40;;;;;;5050734;28;20029;-71
2022/09/18 04:29:20;;;;;;;3.80;1.40;;;15.70;96.90;;;;;;5045325;28;20088;-71
2022/09/18 04:31:45;;;;;;;5.55;1.20;;;15.60;96.90;;;;;;5034728;28;20029;-72
2022/09/18 04:34:11;;;;;;;8.27;1.77;;;15.60;96.90;;;;;;5034076;28;20059;-72
2022/09/18 04:36:36;;;;;;;4.35;1.20;;;15.50;97.00;;;;;;5041622;28;20021;-72
2022/09/18 04:39:02;;;;;;;6.95;1.38;;;15.60;96.80;;;;;;5047097;28;20037;-72
2022/09/18 04:41:28;;;;;;;4.53;1.63;;;15.50;96.90;;;;;;5042411;28;20032;-72
2022/09/18 04:43:53;;;;;;;5.85;1.20;;;15.60;96.70;;;;;;5033891;28;20044;-72
2022/09/18 04:46:19;;;;;;;7.38;1.25;;;15.50;96.50;;;;;;5034472;28;20494;-72
2022/09/18 04:48:47;;;;;;;6.47;1.38;;;15.50;96.80;;;;;;5045860;28;20036;-71
2022/09/18 04:51:13;;;;;;;5.32;1.42;;;15.50;96.80;;;;;;5059621;28;20032;-71
2022/09/18 04:53:39;;;;;;;2.30;0.98;;;15.60;96.70;;;;;;5053052;28;20082;-72
2022/09/18 04:56:05;;;;;;;3.72;1.27;;;15.50;96.50;;;;;;5052618;28;20417;-71
2022/09/18 04:58:31;;;;;;;5.03;1.50;;;15.50;96.40;;;;;;5053790;28;20021;-72
2022/09/18 05:00:56;;;;;;;3.63;1.20;;;15.50;96.40;;;;;;5051159;28;20021;-74
2022/09/18 05:03:22;;;;;;;2.83;1.30;;;15.50;96.30;;;;;;5049324;28;20033;-74
2022/09/18 05:05:49;;;;;;;9.63;1.48;;;15.60;96.00;;;;;;5053597;28;20032;-75
2022/09/18 05:08:15;;;;;;;3.75;1.13;;;15.50;96.00;;;;;;5052728;28;20519;-73
2022/09/18 05:10:41;;;;;;;3.88;1.60;;;15.50;96.00;;;;;;5053962;28;20033;-72
2022/09/18 05:13:07;;;;;;;4.40;1.42;;;15.50;96.00;;;;;;5053622;28;20474;-71
2022/09/18 05:15:33;;;;;;;6.45;2.00;;;15.50;95.80;;;;;;5053775;28;20033;-71
2022/09/18 05:18:04;;;;;;;4.53;1.80;;;15.50;96.10;;;;;;5052686;28;20033;-72
2022/09/18 05:20:32;;;;;;;5.45;1.67;;;15.50;95.80;;;;;;5053308;28;20029;-72
2022/09/18 05:22:58;;;;;;;2.50;1.50;;;15.50;95.70;;;;;;5053731;28;20036;-71
2022/09/18 05:25:28;;;;;;;3.70;1.50;;;15.60;95.60;;;;;;5053680;28;20028;-72
2022/09/18 05:27:55;;;;;;;5.50;1.65;;;15.50;95.70;;;;;;5053228;28;20100;-71
2022/09/18 05:30:21;;;;;;;3.53;1.23;;;15.50;95.40;;;;;;5053312;28;20032;-72
2022/09/18 05:33:00;;;;;;;5.25;1.38;;;15.40;95.70;;;;;;5053469;28;20462;-71
2022/09/18 05:35:28;;;;;;;5.32;1.67;;;15.30;96.30;;;;;;5053433;28;20040;-73
2022/09/18 05:37:54;;;;;;;4.95;1.80;;;15.20;96.40;;;;;;5053475;28;20045;-71
2022/09/18 05:40:22;;;;;;;4.05;1.70;;;15.20;96.40;;;;;;5053154;28;20169;-71
2022/09/18 05:42:49;;;;;;;5.63;1.92;;;15.10;96.60;;;;;;5052892;28;20048;-70
2022/09/18 05:45:15;;;;;;;8.10;2.03;;;15.20;96.60;;;;;;5051972;28;20013;-72
2022/09/18 05:47:41;;;;;;;5.53;1.92;;;15.10;96.40;;;;;;5053112;28;20009;-71
2022/09/18 05:50:08;;;;;;;5.85;1.85;;;15.30;96.60;;;;;;5053032;28;20116;-71
2022/09/18 05:52:35;;;;;;;4.47;2.20;;;15.20;96.40;;;;;;5053353;28;20115;-71
2022/09/18 05:55:01;;;;;;;4.90;1.75;;;15.30;96.20;;;;;;5053179;28;20028;-72
2022/09/18 05:57:28;;;;;;;4.32;1.52;;;15.30;96.00;;;;;;5052690;28;20044;-71
2022/09/18 05:59:54;;;;;;;2.65;1.58;;;15.40;95.90;;;;;;5052889;28;20028;-73
2022/09/18 06:02:19;;;;;;;4.75;1.58;;;15.30;96.00;;;;;;5053037;28;20027;-72
2022/09/18 06:04:45;;;;;;;9.23;2.00;;;15.30;95.90;;;;;;5052980;28;20351;-75
2022/09/18 06:07:11;;;;;;;9.07;2.08;;;15.20;95.90;;;;;;5053009;28;20072;-75
2022/09/18 06:09:38;;;;;;;6.05;1.70;;;15.20;96.10;;;;;;5053009;28;20028;-75
2022/09/18 06:12:04;;;;;;;5.63;2.05;;;15.30;96.00;;;;;;5052410;28;20130;-75
2022/09/18 06:14:29;;;;;;;5.50;1.88;;;15.30;95.60;;;;;;5053006;28;20079;-74
2022/09/18 06:16:55;;;;;;;6.35;1.70;;;15.30;95.60;;;;;;5052807;28;20024;-73
2022/09/18 06:19:20;;;;;;;2.92;1.70;;;15.40;95.40;;;;;;5052782;28;20025;-75
2022/09/18 06:21:46;;;;;;;7.18;2.05;;;15.40;95.30;;;;;;5052708;28;20033;-75
2022/09/18 06:24:11;;;;;;;4.97;1.90;;;15.40;95.50;;;;;;5052984;28;20021;-75
2022/09/18 06:26:37;;;;;;;3.75;2.13;;;15.40;95.50;;;;;;5052618;28;20032;-75
2022/09/18 06:29:02;;;;;;;11.48;2.22;;;15.40;95.50;;;;;;5052767;28;20070;-71
2022/09/18 06:31:28;;;;;;;3.30;1.70;;;15.40;95.60;;;;;;5054115;28;20028;-71
2022/09/18 06:33:54;;;;;;;8.00;1.98;;;15.40;95.30;;;;;;5057117;28;20500;-74
2022/09/18 06:36:19;;;;;;;3.97;1.95;;;15.30;95.90;;;;;;5056900;28;20036;-71
2022/09/18 06:38:48;;;;;;;7.13;1.73;;;15.40;95.70;;;;;;5056795;28;20025;-71
2022/09/18 06:41:14;;;;;;;4.72;2.03;;;15.60;95.50;;;;;;5056099;28;20045;-71
2022/09/18 06:43:39;;;;;;;5.22;1.70;;;15.60;95.30;;;;;;5056739;28;20039;-70
2022/09/18 06:46:06;;;;;;;3.70;1.80;;;15.50;95.30;;;;;;5056504;28;20017;-71
2022/09/18 06:48:32;;;;;;;6.32;1.90;;;15.60;95.40;;;;;;5056847;28;20020;-71
2022/09/18 06:50:58;;;;;;;3.88;2.10;;;15.60;95.30;;;;;;5056328;28;20040;-71
2022/09/18 06:53:25;;;;;;;4.60;1.65;;;15.60;95.40;;;;;;5056656;28;20070;-71
2022/09/18 06:55:51;;;;;;;4.90;1.90;;;15.60;95.30;;;;;;5055880;28;20024;-71
2022/09/18 06:58:18;;;;;;;3.55;1.98;;;15.70;95.20;;;;;;5055210;28;20025;-71
2022/09/18 07:00:44;;;;;;;4.72;2.25;;;15.70;95.10;;;;;;5053721;28;20071;-72
2022/09/18 07:03:11;;;;;;;3.58;1.55;;;15.80;95.20;;;;;;5048930;28;20199;-73
2022/09/18 07:05:44;;;;;;;4.00;1.67;;;15.90;95.10;;;;;;5038515;28;20087;-72
2022/09/18 07:08:10;;;;;;;4.68;1.95;;;15.90;94.70;;;;;;5045756;28;20059;-74
2022/09/18 07:10:36;;;;;;;4.40;2.00;;;15.80;94.90;;;;;;5054453;28;20040;-71
2022/09/18 07:13:03;;;;;;;3.28;1.83;;;16.20;94.80;;;;;;5042065;28;20390;-72
2022/09/18 07:15:29;;;;;;;9.90;2.60;;;16.40;94.40;;;;;;5048501;28;20025;-71
2022/09/18 07:17:56;;;;;;;5.10;1.85;;;16.50;94.20;;;;;;5047684;28;20040;-74
2022/09/18 07:20:22;;;;;;;3.22;1.58;;;16.60;94.20;;;;;;5036010;28;20944;-72
2022/09/18 07:22:56;;;;;;;3.67;1.05;;;16.60;94.20;;;;;;5040359;28;20028;-71
2022/09/18 07:25:22;;;;;;;4.53;1.15;;;16.60;94.80;;;;;;5046667;28;20052;-74
2022/09/18 07:27:49;;;;;;;7.65;1.95;;;16.60;95.10;;;;;;5049772;28;20025;-72
2022/09/18 07:30:15;;;;;;;3.53;1.17;;;16.60;95.00;;;;;;5042540;28;20097;-70
2022/09/18 07:32:40;;;;;;;3.58;1.40;;;16.60;95.00;;;;;;5037596;28;20019;-70
2022/09/18 07:35:07;;;;;;;3.20;1.65;;;16.60;95.60;;;;;;5039233;28;20390;-71
2022/09/18 07:37:32;;;;;;;2.47;1.40;;;16.70;95.30;;;;;;5040365;28;20108;-73
2022/09/18 07:39:58;;;;;;;5.78;1.88;;;16.70;94.80;;;;;;5033219;28;20529;-73
2022/09/18 07:42:25;;;;;;;3.47;1.60;;;16.80;94.80;;;;;;5031389;28;20417;-71
2022/09/18 07:44:51;;;;;;;4.70;1.92;;;16.80;94.70;;;;;;5036685;28;20031;-72
2022/09/18 07:47:16;;;;;;;8.82;2.08;;;16.80;94.60;;;;;;5028527;28;20372;-77
2022/09/18 07:49:42;;;;;;;5.80;1.60;;;16.80;94.50;;;;;;5046713;28;20060;-76
2022/09/18 07:52:08;;;;;;;5.53;1.30;;;16.80;94.60;;;;;;5038867;28;20025;-73
2022/09/18 07:54:34;;;;;;;3.03;1.20;;;16.80;94.70;;;;;;5035936;28;20033;-75
2022/09/18 07:57:00;;;;;;;4.95;1.50;;;16.80;94.70;;;;;;5036558;28;20076;-77
2022/09/18 07:59:25;;;;;;;4.93;1.83;;;16.90;95.10;;;;;;5034763;28;20029;-80
2022/09/18 08:01:54;;;;;;;7.22;1.65;;;16.90;94.70;;;;;;5037824;28;20470;-75
2022/09/18 08:04:21;;;;;;;3.42;1.95;;;17.00;94.20;;;;;;5035526;28;20158;-76
2022/09/18 08:06:53;;;;;;;3.95;1.60;;;16.90;94.50;;;;;;5040783;28;20115;-75
2022/09/18 08:09:20;;;;;;;8.43;1.80;;;16.90;94.10;;;;;;5038160;28;20049;-75
2022/09/18 08:11:49;;;;;;;4.93;1.60;;;17.00;94.00;;;;;;5036699;28;20036;-75
2022/09/18 08:14:15;;;;;;;5.50;1.95;;;16.90;93.90;;;;;;5033368;28;20029;-75
2022/09/18 08:16:41;;;;;;;10.55;1.80;;;17.00;94.10;;;;;;5033175;28;20036;-76
2022/09/18 08:19:07;;;;;;;3.92;1.60;;;17.00;94.20;;;;;;5051648;28;20018;-73
2022/09/18 08:21:32;;;;;;;5.13;1.77;;;17.00;94.30;;;;;;5032540;28;20032;-74
2022/09/18 08:23:58;;;;;;;4.78;1.45;;;17.00;94.40;;;;;;5036898;28;20393;-74
2022/09/18 08:26:23;;;;;;;3.72;1.50;;;17.00;94.40;;;;;;5037066;28;20025;-74
2022/09/18 08:28:49;;;;;;;6.38;2.05;;;17.00;94.50;;;;;;5043257;28;20070;-72
2022/09/18 08:31:15;;;;;;;5.75;1.40;;;17.00;94.30;;;;;;5042347;28;20482;-73
2022/09/18 08:33:40;;;;;;;3.95;1.95;;;17.00;94.60;;;;;;5036108;28;20065;-73
2022/09/18 08:36:06;;;;;;;3.25;1.67;;;17.10;94.60;;;;;;5041148;28;20025;-73
2022/09/18 08:38:32;;;;;;;2.30;1.55;;;17.10;94.60;;;;;;5040962;28;20026;-73
2022/09/18 08:41:24;;;;;;;8.70;2.42;;;17.10;94.60;;;;;;5047044;28;20067;-73
2022/09/18 08:43:55;;;;;;;6.07;2.38;;;17.20;94.40;;;;;;5038780;28;20083;-73
2022/09/18 08:46:32;;;;;;;4.00;2.17;;;17.20;94.10;;;;;;5041148;28;20033;-78
2022/09/18 08:49:36;;;;;;;8.35;1.83;;;17.20;94.40;;;;;;5038818;28;20075;-78
2022/09/18 08:52:13;;;;;;;8.07;2.20;;;17.20;94.80;;;;;;5045213;28;20119;-75
2022/09/18 08:54:57;;;;;;;6.25;2.30;;;17.20;94.70;;;;;;5033266;28;20029;-74
2022/09/18 08:57:48;;;;;;;5.10;2.40;;;17.20;94.80;;;;;;5054868;28;20104;-81
2022/09/18 09:00:35;;;;;;;6.25;2.30;;;17.10;95.00;;;;;;5037120;28;20485;-71
2022/09/18 09:03:16;;;;;;;3.50;2.20;;;17.20;94.80;;;;;;5033162;28;20099;-73
2022/09/18 09:05:47;;;;;;;3.47;1.65;;;17.20;94.40;;;;;;5033594;28;20029;-74
2022/09/18 09:08:29;;;;;;;4.90;2.17;;;17.20;94.80;;;;;;5047327;28;20029;-72
2022/09/18 09:11:32;;;;;;;6.80;2.10;;;17.20;95.00;;;;;;5032211;28;20049;-71
2022/09/18 09:14:14;;;;;;;3.40;1.60;;;17.20;95.10;;;;;;5027001;28;21746;-70
2022/09/18 09:16:50;;;;;;;;;;;17.20;95.00;;;;;;5031983;28;20025;-70
2022/09/18 09:19:31;;;;;;;4.10;1.83;;;17.20;94.90;;;;;;5037141;28;19913;-72
2022/09/18 09:22:17;;;;;;;6.28;2.25;;;17.20;95.00;;;;;;5040611;28;20032;-71
2022/09/18 09:25:33;;;;;;;5.78;1.92;;;17.20;95.00;;;;;;5027637;28;20508;-70
2022/09/18 09:28:11;;;;;;;9.48;2.35;;;17.20;95.20;;;;;;5010281;28;20068;-72
2022/09/18 09:30:37;;;;;;;5.60;1.90;;;17.30;95.20;;;;;;5033492;28;20042;-72
2022/09/18 09:33:18;;;;;;;2.92;1.75;;;17.30;95.10;;;;;;5029476;28;20025;-72
2022/09/18 09:35:51;;;;;;;7.03;1.63;;;17.30;95.10;;;;;;5035885;28;20044;-72
2022/09/18 09:38:35;;;;;;;3.30;1.73;;;17.30;95.00;;;;;;5039082;28;20029;-72
2022/09/18 09:41:24;;;;;;;3.60;1.23;;;17.30;94.90;;;;;;5035325;28;20056;-73
2022/09/18 09:43:53;;;;;;;3.25;1.55;;;17.30;94.70;;;;;;5041309;28;21581;-73
2022/09/18 09:46:37;;;;;;;4.00;1.20;;;17.40;94.70;;;;;;5037937;28;20038;-73
2022/09/18 09:49:13;;;;;;;7.78;1.95;;;17.30;94.60;;;;;;5036352;28;20084;-73
2022/09/18 09:52:01;;;;;;;4.03;1.60;;;17.40;94.50;;;;;;5030475;28;20032;-73
2022/09/18 09:54:27;;;;;;;2.63;1.20;;;17.40;94.50;;;;;;5027989;28;20162;-73
2022/09/18 09:57:21;;;;;;;3.78;0.88;;;17.40;94.50;;;;;;5030583;28;20471;-73
2022/09/18 09:59:56;;;;;;;4.78;1.23;;;17.40;94.50;;;;;;5037626;28;20022;-73
2022/09/18 10:03:07;;;;;;;1.80;0.80;;;17.50;94.20;;;;;;5037861;28;20220;-75
2022/09/18 10:05:53;;;;;;;3.35;0.77;;;17.50;94.00;;;;;;5027814;28;20036;-74
2022/09/18 10:08:51;;;;;;;2.50;0.70;;;17.50;93.70;;;;;;5033537;28;20048;-71
2022/09/18 10:11:17;;;;;;;2.63;0.77;;;17.50;93.50;;;;;;5035620;28;20032;-73
2022/09/18 10:13:51;;;;;;;3.67;0.75;;;17.50;93.10;;;;;;5030596;28;20490;-71
2022/09/18 10:16:49;;;;;;;3.38;0.65;;;17.50;92.90;;;;;;5035638;28;20028;-72
2022/09/18 10:19:18;;;;;;;6.80;0.80;;;17.50;93.00;;;;;;5026414;28;20041;-73
2022/09/18 10:21:44;;;;;;;3.35;0.70;;;17.50;93.10;;;;;;5043324;28;20543;-74
2022/09/18 10:24:28;;;;;;;2.50;0.88;;;17.60;93.70;;;;;;5044921;28;20530;-77
2022/09/18 10:27:01;;;;;;;3.35;0.50;;;17.60;93.40;;;;;;5035722;28;20025;-74
2022/09/18 10:29:26;;;;;;;3.20;0.93;;;17.60;93.00;;;;;;5036173;28;20029;-76
2022/09/18 10:31:57;;;;;;;6.15;1.00;;;17.70;93.30;;;;;;5038821;28;20041;-75
2022/09/18 10:34:41;;;;;;;2.88;1.17;;;17.80;94.10;;;;;;5036368;28;20029;-84
2022/09/18 10:37:37;;;;;;;3.58;1.08;;;17.80;94.30;;;;;;5034535;28;20025;-75
2022/09/18 10:40:06;;;;;;;6.75;1.08;;;17.80;93.80;;;;;;5040289;28;20098;-75
2022/09/18 10:42:34;;;;;;;6.97;1.45;;;17.80;93.50;;;;;;5051964;28;20033;-77
2022/09/18 10:45:04;;;;;;;5.32;1.25;;;17.80;93.80;;;;;;5044183;28;20029;-72
2022/09/18 10:47:37;;;;;;;5.93;1.20;;;17.80;94.20;;;;;;5027707;28;20064;-71
2022/09/18 10:50:16;;;;;;;9.38;1.90;;;17.90;94.40;;;;;;5027551;28;20025;-73
2022/09/18 10:52:45;;;;;;;5.25;1.67;;;17.90;95.40;;;;;;5027292;28;20112;-73
2022/09/18 10:55:17;;;;;;;10.85;2.30;;;17.90;94.80;;;;;;5030697;28;20048;-74
2022/09/18 10:58:14;;;;;;;4.28;1.92;;;17.90;95.00;;;;;;5029621;28;20056;-72
2022/09/18 11:00:42;;;;;;;7.28;1.10;;;17.90;94.90;;;;;;5034959;28;20086;-75
2022/09/18 11:03:24;;;;;;;1.92;0.43;;;17.90;93.10;;;;;;5030865;28;20437;-72
2022/09/18 11:05:56;;;;;;;3.30;0.82;;;18.00;92.40;;;;;;5045986;28;20474;-72
2022/09/18 11:08:29;;;;;;;2.15;0.93;;;18.00;92.90;;;;;;5047833;28;20478;-72
2022/09/18 11:11:08;;;;;;;4.70;1.20;;;18.00;92.30;;;;;;5039201;28;20033;-73
2022/09/18 11:13:43;;;;;;;5.18;1.08;;;18.00;93.60;;;;;;5037521;28;20033;-74
2022/09/18 11:16:10;;;;;;;5.68;0.90;;;18.00;92.70;;;;;;5033962;28;20487;-74
2022/09/18 11:18:36;;;;;;;10.05;1.70;;;18.00;93.30;;;;;;5053557;28;20025;-73
2022/09/18 11:21:05;;;;;;;7.82;1.77;;;18.10;94.40;;;;;;5049141;28;20124;-71
2022/09/18 11:23:32;;;;;;;8.18;1.90;;;18.10;94.90;;;;;;5053287;28;20079;-74
2022/09/18 11:26:18;;;;;;;7.55;1.60;;;18.20;95.20;;;;;;5038970;28;20059;-74
2022/09/18 11:29:05;;;;;;;5.55;1.60;;;18.20;94.50;;;;;;5040404;28;20475;-74
2022/09/18 11:31:45;;;;;;;3.85;0.75;;;18.30;94.20;;;;;;5035417;28;20083;-78
2022/09/18 11:34:20;;;;;;;6.53;0.90;;;18.30;93.40;;;;;;5052695;28;20049;-71
2022/09/18 11:36:48;;;;;;;2.80;0.80;;;18.30;93.40;;;;;;5044073;28;20021;-76
2022/09/18 11:39:25;;;;;;;7.30;1.10;;;18.30;93.50;;;;;;5030967;28;20024;-75
2022/09/18 11:41:53;;;;;;;3.63;1.02;;;18.30;93.40;;;;;;5044900;28;20034;-75
2022/09/18 11:44:31;;;;;;;3.17;1.35;;;18.40;93.00;;;;;;5036622;28;20029;-79
2022/09/18 11:47:21;;;;;;;3.58;0.90;;;18.30;92.50;;;;;;5042366;28;20079;-74
2022/09/18 11:50:05;;;;;;;3.25;0.98;;;18.40;92.60;;;;;;5032169;28;20033;-73
2022/09/18 11:52:47;;;;;;;6.63;0.60;;;18.50;92.30;;;;;;5039791;28;20029;-72
2022/09/18 11:55:27;;;;;;;4.78;0.82;;;18.40;92.90;;;;;;5043409;28;20497;-74
2022/09/18 11:57:58;;;;;;;5.50;0.77;;;18.40;92.80;;;;;;5042606;28;20087;-74
2022/09/18 12:00:28;;;;;;;1.55;0.60;;;18.50;92.90;;;;;;5037783;28;20017;-72
2022/09/18 12:03:24;;;;;;;3.50;0.60;;;18.40;93.20;;;;;;5029643;28;20037;-71
2022/09/18 12:05:56;;;;;;;3.55;0.30;;;18.50;92.90;;;;;;5035432;28;20032;-70
2022/09/18 12:08:22;;;;;;;1.33;0.55;;;18.50;92.30;;;;;;5032279;28;20032;-71
2022/09/18 12:10:57;;;;;;;3.05;0.80;;;18.50;91.80;;;;;;5042127;28;20040;-73
2022/09/18 12:13:56;;;;;;;2.42;0.60;;;18.60;92.10;;;;;;5033108;28;20036;-74
2022/09/18 12:16:32;;;;;;;4.97;0.45;;;18.60;92.50;;;;;;5041633;28;20037;-72
2022/09/18 12:19:10;;;;;;;5.50;0.52;;;18.70;92.30;;;;;;5036182;28;20022;-76
2022/09/18 12:22:22;;;;;;;3.80;0.50;;;18.70;92.30;;;;;;5035982;28;20083;-75
2022/09/18 12:24:47;;;;;;;5.00;0.50;;;18.70;91.60;;;;;;5016205;28;20701;-77
2022/09/18 12:27:36;;;;;;;2.75;0.40;;;18.70;91.60;;;;;;5039283;28;20068;-73
2022/09/18 12:30:13;;;;;;;3.42;0.35;;;18.70;92.00;;;;;;5040281;28;20034;-76
2022/09/18 12:33:21;;;;;;;3.75;0.50;;;18.70;91.20;;;;;;5026543;28;20398;-74
2022/09/18 12:35:55;;;;;;;4.80;0.60;;;18.70;91.70;;;;;;5027747;28;20539;-74
2022/09/18 12:38:42;;;;;;;2.60;0.45;;;18.70;91.70;;;;;;5036017;28;20085;-76
2022/09/18 12:41:18;;;;;;;2.55;0.20;;;18.80;91.40;;;;;;5035434;28;20524;-76
2022/09/18 12:44:17;;;;;;;3.55;0.40;;;18.80;90.70;;;;;;5036972;28;20483;-74
2022/09/18 12:46:51;;;;;;;2.55;0.20;;;18.80;90.60;;;;;;5044432;28;20026;-77
2022/09/18 12:49:56;;;;;;;4.32;0.40;;;18.90;89.80;;;;;;5040805;28;20393;-76
2022/09/18 12:52:49;;;;;;;3.60;0.13;;;18.90;90.10;;;;;;5049855;28;20063;-78
2022/09/18 12:55:16;;;;;;;1.75;0.40;;;18.90;90.30;;;;;;5045284;28;20041;-78
2022/09/18 12:58:04;;;;;;;2.20;0.30;;;18.90;88.00;;;;;;5042885;28;20120;-76
2022/09/18 13:00:29;;;;;;;1.58;0.30;;;18.90;88.40;;;;;;5040469;28;20051;-75
2022/09/18 13:03:11;;;;;;;3.17;0.30;;;18.90;89.40;;;;;;5036985;28;20029;-74
2022/09/18 13:05:54;;;;;;;4.10;0.20;;;18.90;88.50;;;;;;5038566;28;20394;-77
2022/09/18 13:08:47;;;;;;;1.45;0.22;;;18.90;88.70;;;;;;5034375;28;20044;-75
2022/09/18 13:11:29;;;;;;;4.10;0.30;;;19.00;89.10;;;;;;5037835;28;20084;-74
2022/09/18 13:14:01;;;;;;;3.03;0.30;;;18.90;88.80;;;;;;5036507;28;20056;-74